Tiempo atmosférico en la estación meteorológica de Chandrexa De Queixa, Ourense (990 m.)



Fecha
DESCASC
Temp. máxima en grados centígrados (hora)
DESCASC
Temp. mínima en grados centígrados (hora)
DESCASC
Temp. media en grados centígrados
DESCASC
Racha de viento máxima en m/sg (hora)
DESCASC
Velocidad máxima media en intervalos de 10 minutos(hora)
DESCASC
Precipitaciones diarias en mm
DESCASC
Precipitaciones de 00:00 a 06:00 en mm
DESCASC
Precipitaciones de 06:00 a 12:00 en mm
DESCASC
Precipitaciones de 12:00 a 18:00 en mm
DESCASC
Precipitaciones de 18:00 a 24:00 en mm
DESCASC
13-01-2021 12.2 (15:20) -4.5 (08:40) 3.8 -- (--) -- (--) 2.2 0 0 2.2 0
12-01-2021 9.9 (16:10) -5.4 (08:30) 2.2 -- (--) -- (--) 4 0 0 4 0
11-01-2021 4.3 (15:10) -7.4 (09:00) -1.5 -- (--) -- (--) 0.2 0 0 0.2 0
10-01-2021 3.1 (15:40) -4.2 (23:20) -0.5 -- (--) -- (--) 0 0 0 0 0
09-01-2021 -0.1 (16:30) -6.7 (-00:0) -3.4 -- (--) -- (--) 0 0 0 0 0
08-01-2021 0.5 (15:50) -9.2 (-00:0) -4.3 -- (--) -- (--) 0 0 0 0 0
07-01-2021 1.3 (15:20) -8.6 (-00:0) -3.7 -- (--) -- (--) 0 0 0 0 0
06-01-2021 2.8 (15:10) -7.2 (-00:0) -2.2 -- (--) -- (--) 0.4 0 0 0.4 0
05-01-2021 1.4 (14:50) -7.5 (-00:0) -3.1 -- (--) -- (--) 1.2 0 0 1.2 0
04-01-2021 0.2 (13:20) -4.3 (-00:0) -2.1 -- (--) -- (--) 1.4 0 0 1.4 0
03-01-2021 1.1 (15:10) -0.8 (-00:0) 0.2 -- (--) -- (--) 1.6 0 0 1.4 0.2
02-01-2021 0.6 (14:50) -1.9 (-00:0) -0.6 -- (--) -- (--) 2.6 0 0 2.6 0
01-01-2021 0.3 (13:50) -1.8 (-00:0) -0.7 -- (--) -- (--) 3.4 0.2 0 3.2 0
31-12-2020 3.9 (13:20) -0.3 (00:00) 1.8 11.39 (05:10) 5.28 (05:40) 11.4 1.8 4.8 3.8 1
30-12-2020 2 (16:10) -0.6 (-00:0) 0.7 6.39 (01:00) 2.5 (00:10) 6.6 0 0 4.8 1.8
29-12-2020 1.7 (15:40) -0.6 (-00:0) 0.6 10.56 (08:00) 5 (10:30) 2.6 1 0.4 1.2 0
28-12-2020 4.6 (00:00) 0.1 (00:00) 2.3 22.5 (00:10) 9.44 (00:50) 14.2 5 0.4 4 4.8
27-12-2020 6.3 (22:00) -2.9 (-00:0) 1.7 24.17 (20:40) 11.11 (15:50) 9 0 0 0 9
26-12-2020 6 (15:40) -5.3 (-00:0) 0.3 2.78 (13:40) 1.67 (16:40) 0 0 0 0 0
25-12-2020 4.7 (14:50) -2.6 (-00:0) 1 7.5 (11:10) 3.61 (16:30) 0 0 0 0 0
24-12-2020 3.6 (14:10) -0.2 (00:00) 1.7 6.39 (14:20) 2.22 (14:30) 0.4 0.4 0 0 0
23-12-2020 8.5 (00:00) 2 (23:20) 5.3 21.67 (04:30) 15.83 (04:30) 4.6 0 2.2 1.6 0.8
21-12-2020 13.5 (15:20) 7.5 (00:00) 10.5 15.56 (00:50) 10.83 (21:30) 2 1.8 0.2 0 0
20-12-2020 7.9 (14:40) 4.6 (00:00) 6.3 18.06 (21:10) 11.39 (21:40) 0 0 0 0 0
19-12-2020 9.4 (14:20) 4.4 (00:00) 6.9 18.33 (00:20) 13.33 (00:30) 3.8 2.2 0.8 0.8 0
18-12-2020 10.1 (14:10) 2.5 (00:00) 6.3 23.33 (18:30) 16.11 (21:20) 5 0 0 0 5

Gráficas

Temp. máximas Temp. mínimas Temp. medias Precipitaciones Rachas de viento máximas Velocidades máximas media en intervalos de 10 minutos

Datos horarios

Fecha y hora oficial Temperatura (ºC) Velocidad del viento (km/h) Dirección del viento Racha (km/h) Dirección de racha Precipitación (mm) Presión (hPa) Tendencia (hPa) Humedad (%)
2021-01-16 23:00:00 -2.1 3 Sudoeste 6 Oeste 0 -- -- 75
2021-01-16 22:00:00 -1.2 2 Sudoeste 10 Sudoeste 0 -- -- 72
2021-01-16 21:00:00 -0.2 2 Sur 8 Sudoeste 0 -- -- 66
2021-01-16 20:00:00 1.6 4 Sudoeste 9 Sur 0 -- -- 64
2021-01-16 19:00:00 4.3 4 Sur 12 Sur 0 -- -- 52
2021-01-16 18:00:00 8.4 9 Sur 14 Sur 0 -- -- 38
2021-01-16 17:00:00 11.8 5 Oeste 18 Oeste 0 -- -- 29
2021-01-16 16:00:00 13.4 6 Oeste 14 Oeste 0 -- -- 30
2021-01-16 15:00:00 11.5 5 Norte 8 Norte 0 -- -- 39
2021-01-16 14:00:00 10.4 0 Calma 8 Nordeste 0 -- -- 35
2021-01-16 13:00:00 8.7 0 Calma 4 Sudoeste 0 -- -- 47
2021-01-16 12:00:00 4.4 3 Sudoeste 6 Sudoeste 0 -- -- 54
2021-01-16 11:00:00 0.1 4 Sudoeste 9 Sudoeste 0 -- -- 70
2021-01-16 10:00:00 -2.6 2 Sudoeste 9 Sudoeste 0 -- -- 81
2021-01-16 09:00:00 -3.3 5 Sur 8 Sur 0 -- -- 78
2021-01-16 08:00:00 -3.4 3 Oeste 8 Sudoeste 0 -- -- 82
2021-01-16 07:00:00 -3.3 2 Sudeste 6 Oeste 0 -- -- 80
2021-01-16 06:00:00 -3.3 3 Sur 4 Sur 0 -- -- 83
2021-01-16 05:00:00 -3.4 2 Sur 4 Sur 0 -- -- 85
2021-01-16 04:00:00 -3.4 0 Calma 8 Oeste 0 -- -- 88
2021-01-16 03:00:00 -3.2 4 Sudoeste 7 Sudoeste 0 -- -- 89
2021-01-16 02:00:00 -2.8 3 Sudoeste 10 Sudoeste 0 -- -- 89
2021-01-16 01:00:00 -2.8 3 Sudoeste 11 Sur 0 -- -- 94
2021-01-16 00:00:00 -2.3 3 Sur 7 Sudoeste 0 -- -- 90
2021-01-15 23:00:00 -2.3 4 Sur 7 Oeste 0 -- -- 85
2021-01-15 22:00:00 -1.7 3 Sudoeste 10 Sudoeste 0 -- -- 84
2021-01-15 21:00:00 -1.1 0 Calma 10 Sur 0 -- -- 84
2021-01-15 20:00:00 0.6 4 Sur 8 Sur 0 -- -- 74
2021-01-15 19:00:00 2.5 5 Sur 12 Sur 0 -- -- 66
2021-01-15 18:00:00 5.1 0 Calma 8 Nordeste 0 -- -- 58
2021-01-15 17:00:00 6.3 4 Nordeste 11 Nordeste 0 -- -- 57
2021-01-15 16:00:00 6.8 6 Nordeste 12 Este 0 -- -- 45
2021-01-15 15:00:00 7.4 7 Nordeste 11 Nordeste 0 -- -- 39
2021-01-15 14:00:00 6.8 4 Nordeste 9 Nordeste 0 -- -- 55
2021-01-15 13:00:00 5.6 0 Calma 5 Sudoeste 0 -- -- 55
2021-01-15 12:00:00 2.3 2 Sudoeste 8 Sudoeste 0 -- -- 87
2021-01-15 11:00:00 -0.9 4 Sur 6 Oeste 0 -- -- 99
2021-01-15 10:00:00 -2.5 2 Sudoeste 8 Sudoeste 0 -- -- 100
2021-01-15 09:00:00 -2.5 0 Calma 6 Sur 0 -- -- 100
2021-01-15 08:00:00 -1.6 2 Sudoeste 8 Sur 0 -- -- 100
2021-01-15 07:00:00 -0.9 4 Sur 6 Sur 0 -- -- 98
2021-01-15 06:00:00 0.2 2 Oeste 8 Sudoeste 0 -- -- 100
2021-01-15 05:00:00 1.2 3 Sur 7 Sur 0 -- -- 99
2021-01-15 04:00:00 1.7 2 Sur 4 Este 0 -- -- 99
2021-01-15 03:00:00 2.2 2 Sur 4 Sur 0 -- -- 100
2021-01-15 02:00:00 1.8 2 Sur 7 Sur 0 -- -- 100
2021-01-15 01:00:00 1.6 3 Sur 6 Sur 0 -- -- 100
2021-01-15 00:00:00 0.9 4 Sur 7 Sur 0 -- -- 100
2021-01-14 23:00:00 1.1 2 Sur 4 Sur 0 -- -- 99
2021-01-14 22:00:00 1.6 0 Calma 3 Sur 0 -- -- 98
2021-01-14 21:00:00 2 3 Sur 5 Sur 0 -- -- 97
2021-01-14 20:00:00 3 0 Calma 4 Sur 0 -- -- 97
2021-01-14 19:00:00 4.2 3 Norte 5 Norte 0 -- -- 96
2021-01-14 18:00:00 5.2 0 Calma 6 Este 0 -- -- 94
2021-01-14 17:00:00 5.4 3 Nordeste 15 Norte 0 -- -- 93
2021-01-14 16:00:00 6.7 4 Norte 13 Norte 0 -- -- 85
2021-01-14 15:00:00 7.2 4 Norte 17 Norte 0 -- -- 80
2021-01-14 14:00:00 8.5 8 Nordeste 16 Norte 0 -- -- 67
2021-01-14 13:00:00 7.3 4 Nordeste 9 Norte 0 -- -- 42
2021-01-14 12:00:00 3.4 2 Sur 4 Sudeste 0 -- -- 61
2021-01-14 11:00:00 -1.9 2 Sur 6 Sudoeste 0 -- -- 75
2021-01-14 10:00:00 -4.3 0 Calma 4 Sudoeste 0 -- -- 88
2021-01-14 09:00:00 -5 2 Sudoeste 6 Oeste 0 -- -- 88
2021-01-14 08:00:00 -4.8 0 Calma 5 Oeste 0 -- -- 87
2021-01-14 07:00:00 -4.3 3 Sudoeste 9 Sudoeste 0 -- -- 85
2021-01-14 06:00:00 -4.1 3 Sudoeste 10 Sudoeste 0 -- -- 85
2021-01-14 05:00:00 -3.9 4 Sudoeste 10 Sudoeste 0 -- -- 86
2021-01-14 04:00:00 -3.8 4 Sudoeste 9 Sudoeste 0 -- -- 85
2021-01-14 03:00:00 -3.3 5 Oeste 11 Sudoeste 0 -- -- 84
2021-01-14 02:00:00 -3.1 4 Oeste 8 Sudoeste 0 -- -- 84
2021-01-14 01:00:00 -2.8 3 Sudoeste 8 Oeste 0 -- -- 86
2021-01-14 00:00:00 -2.4 2 Sur 11 Oeste 0 -- -- 85
2021-01-13 23:00:00 -1.8 3 Oeste 10 Oeste 0 -- -- 84
2021-01-13 22:00:00 -1.2 3 Sudoeste 9 Sudoeste 0 -- -- 81
2021-01-13 21:00:00 -0.1 5 Sudoeste 7 Sudoeste 0 -- -- 78
2021-01-13 20:00:00 1.4 3 Oeste 11 Sur 0 -- -- 71
2021-01-13 19:00:00 3.6 8 Sur 14 Sur 0 -- -- 55
2021-01-13 18:00:00 7.9 6 Sur 9 Sur 0.2 -- -- 42
2021-01-13 17:00:00 11 2 Sur 5 Norte 0.4 -- -- 34
2021-01-13 16:00:00 11.9 3 Norte 8 Norte 0.6 -- -- 26
2021-01-13 15:00:00 11.7 4 Noroeste 10 Noroeste 0.2 -- -- 31
2021-01-13 14:00:00 10.4 3 Sur 6 Sur 0.4 -- -- 32
2021-01-13 13:00:00 7.6 2 Sudoeste 5 Sudoeste 0.4 -- -- 44
2021-01-13 12:00:00 3.3 2 Sudoeste 9 Sudoeste 0 -- -- 60
2021-01-13 11:00:00 -1.4 3 Sudoeste 9 Sudoeste 0 -- -- 74
2021-01-13 10:00:00 -3.8 3 Oeste 8 Sudoeste 0 -- -- 88
2021-01-13 09:00:00 -4.5 5 Sudoeste 11 Oeste 0 -- -- 89
2021-01-13 08:00:00 -4.3 4 Sudoeste 8 Oeste 0 -- -- 88
2021-01-13 07:00:00 -4.1 5 Sudoeste 9 Sudoeste 0 -- -- 88
2021-01-13 06:00:00 -4 4 Sudoeste 6 Sudoeste 0 -- -- 88
2021-01-13 05:00:00 -3.7 5 Sudoeste 8 Sudoeste 0 -- -- 88
2021-01-13 04:00:00 -3.7 3 Sudoeste 8 Sudoeste 0 -- -- 89
2021-01-13 03:00:00 -3.4 4 Sudoeste 9 Oeste 0 -- -- 89
2021-01-13 02:00:00 -3.2 3 Oeste 9 Sudoeste 0 -- -- 89
2021-01-13 01:00:00 -2.9 4 Sudoeste 9 Sudoeste 0 -- -- 89
2021-01-13 00:00:00 -2.5 3 Sudoeste 9 Sudoeste 0 -- -- 89
2021-01-12 23:00:00 -2.2 3 Sudoeste 6 Sudoeste 0 -- -- 89
2021-01-12 22:00:00 -1.8 3 Sudoeste 5 Sudoeste 0 -- -- 88
2021-01-12 21:00:00 -0.9 3 Sudoeste 6 Sudoeste 0 -- -- 86
2021-01-12 20:00:00 0.5 0 Calma 4 Sur 0 -- -- 79
2021-01-12 19:00:00 2.5 4 Sudoeste 9 Sur 0 -- -- 67
2021-01-12 18:00:00 6.1 3 Sur 5 Sur 0.4 -- -- 53
2021-01-12 17:00:00 9 3 Sur 8 Sur 1 -- -- 46
2021-01-12 16:00:00 9.5 2 Norte 5 Nordeste 1.2 -- -- 42
2021-01-12 15:00:00 8.7 3 Norte 8 Norte 0.4 -- -- 43
2021-01-12 14:00:00 6.6 6 Nordeste 8 Norte 0.6 -- -- 53
2021-01-12 13:00:00 5.4 2 Nordeste 5 Este 0.4 -- -- 56
2021-01-12 12:00:00 2.7 0 Calma 6 Sudoeste 0 -- -- 70
2021-01-12 11:00:00 -2.3 3 Sudoeste 6 Sudoeste 0 -- -- 84
2021-01-12 10:00:00 -4.6 3 Sudoeste 6 Oeste 0 -- -- 93
2021-01-12 09:00:00 -5.3 5 Oeste 8 Sudoeste 0 -- -- 93
2021-01-12 08:00:00 -5.2 3 Sudoeste 6 Oeste 0 -- -- 93
2021-01-12 07:00:00 -5.2 4 Sudoeste 8 Sudoeste 0 -- -- 95
2021-01-12 06:00:00 -5.1 3 Sudoeste 8 Sudoeste 0 -- -- 92
2021-01-12 05:00:00 -5 3 Sudoeste 9 Sudoeste 0 -- -- 93
2021-01-12 04:00:00 -5.1 4 Sudoeste 9 Oeste 0 -- -- 96
2021-01-12 03:00:00 -5 2 Sudoeste 5 Oeste 0 -- -- 94
2021-01-12 02:00:00 -4.8 2 Sudoeste 5 Sudoeste 0 -- -- 94
2021-01-12 01:00:00 -4.4 2 Sudoeste 8 Oeste 0 -- -- 92
2021-01-12 00:00:00 -4.1 3 Sudoeste 6 Sudoeste 0 -- -- 93
2021-01-11 23:00:00 -3.8 0 Calma 6 Sudoeste 0 -- -- 91
2021-01-11 22:00:00 -2.9 3 Sudoeste 12 Sudoeste 0 -- -- 89
2021-01-11 21:00:00 -2.6 4 Sur 6 Sur 0 -- -- 85
2021-01-11 20:00:00 -1.7 3 Sur 11 Sur 0 -- -- 82
2021-01-11 19:00:00 -0.2 8 Sur 13 Sur 0 -- -- 76
2021-01-11 18:00:00 2 3 Sur 12 Nordeste 0 -- -- 67
2021-01-11 17:00:00 3.4 5 Norte 17 Norte 0.2 -- -- 60
2021-01-11 16:00:00 4 6 Nordeste 14 Norte 0 -- -- 54
2021-01-11 15:00:00 4.2 4 Nordeste 13 Nordeste 0 -- -- 56
2021-01-11 14:00:00 2.8 7 Norte 17 Norte 0 -- -- 60
2021-01-11 13:00:00 2.3 5 Nordeste 14 Nordeste 0 -- -- 63
2021-01-11 12:00:00 -0.6 0 Calma 6 Sur 0 -- -- 75
2021-01-11 11:00:00 -4.4 0 Calma 7 Sudoeste 0 -- -- 88
2021-01-11 10:00:00 -6.5 2 Sur 5 Sudoeste 0 -- -- 98
2021-01-11 09:00:00 -7.4 3 Sur 6 Sur 0 -- -- 94
2021-01-11 08:00:00 -7.2 3 Oeste 8 Oeste 0 -- -- 95
2021-01-11 07:00:00 -6.8 2 Sudoeste 5 Sudoeste 0 -- -- 92
2021-01-11 06:00:00 -6.5 3 Sudoeste 5 Sudoeste 0 -- -- 90
2021-01-11 05:00:00 -5.7 0 Calma 7 Sudoeste 0 -- -- 88
2021-01-11 04:00:00 -4.9 0 Calma 5 Sudoeste 0 -- -- 83
2021-01-11 03:00:00 -3.6 0 Calma 15 Nordeste 0 -- -- 75
2021-01-11 02:00:00 -3.1 4 Nordeste 7 Nordeste 0 -- -- 70
2021-01-11 01:00:00 -3.6 4 Nordeste 13 Nordeste 0 -- -- 80
2021-01-11 00:00:00 -3.1 5 Nordeste 10 Nordeste 0 -- -- 79
2021-01-10 23:00:00 -3.9 4 Norte 6 Nordeste 0 -- -- 89
2021-01-10 22:00:00 -3.8 0 Calma 3 Norte 0 -- -- 88
2021-01-10 21:00:00 -3 0 Calma 4 Sudoeste 0 -- -- 84
2021-01-10 20:00:00 -2.1 0 Calma 5 Nordeste 0 -- -- 85
2021-01-10 19:00:00 -0.9 3 Este 6 Este 0 -- -- 78
2021-01-10 18:00:00 1.1 2 Noroeste 11 Norte 0 -- -- 73
2021-01-10 17:00:00 1.8 4 Norte 20 Norte 0 -- -- 72
2021-01-10 16:00:00 2.5 5 Norte 28 Norte 0 -- -- 71
2021-01-10 15:00:00 2.6 10 Norte 27 Norte 0 -- -- 73
2021-01-10 14:00:00 1.8 6 Norte 19 Norte 0 -- -- 77
2021-01-10 13:00:00 1.6 8 Nordeste 20 Norte 0 -- -- 77
2021-01-10 12:00:00 0.2 5 Nordeste 14 Nordeste 0 -- -- 80
2021-01-10 11:00:00 -1.4 3 Sur 5 Sudeste 0 -- -- 91
2021-01-10 10:00:00 -2.9 2 Sur 6 Norte 0 -- -- 96
2021-01-10 09:00:00 -3.3 0 Calma 7 Norte 0 -- -- 96
2021-01-10 08:00:00 -2.6 0 Calma 12 Norte 0 -- -- 94
2021-01-10 07:00:00 -2.3 0 Calma 6 Norte 0 -- -- 94
2021-01-10 06:00:00 -1.5 2 Este 6 Nordeste 0 -- -- 91
2021-01-10 05:00:00 -1.2 3 Este 8 Noroeste 0 -- -- 90
2021-01-10 04:00:00 -1.5 0 Calma 6 Sudeste 0 -- -- 93
2021-01-10 03:00:00 -1.9 0 Calma 4 Sur 0 -- -- 94
2021-01-10 02:00:00 -2 0 Calma 5 Sudeste 0 -- -- 94
2021-01-10 01:00:00 -1.9 0 Calma 9 Oeste 0 -- -- 95
2021-01-10 00:00:00 -1.9 2 Noroeste 11 Norte 0 -- -- 98
2021-01-09 23:00:00 -2 0 Calma 15 Nordeste 0 -- -- 98
2021-01-09 22:00:00 -2 4 Nordeste 19 Nordeste 0 -- -- 97
2021-01-09 21:00:00 -1.7 4 Norte 18 Norte 0 -- -- 91
2021-01-09 20:00:00 -1.4 4 Nordeste 20 Noroeste 0 -- -- 85
2021-01-09 19:00:00 -1.3 7 Norte 19 Norte 0 -- -- 83
2021-01-09 18:00:00 -0.9 4 Nordeste 21 Norte 0 -- -- 79
2021-01-09 17:00:00 -0.4 5 Nordeste 16 Nordeste 0 -- -- 79
2021-01-09 16:00:00 -0.5 4 Norte 23 Norte 0 -- -- 84
2021-01-09 15:00:00 -0.4 5 Norte 16 Nordeste 0 -- -- 82
2021-01-09 14:00:00 -0.9 5 Nordeste 17 Nordeste 0 -- -- 75
2021-01-09 13:00:00 -1.6 4 Nordeste 12 Nordeste 0 -- -- 73
2021-01-09 12:00:00 -2.9 2 Nordeste 6 Este 0 -- -- 71
2021-01-09 11:00:00 -5 0 Calma 4 Norte 0 -- -- 76
2021-01-09 10:00:00 -5.9 0 Calma 6 Sur 0 -- -- 78
2021-01-09 09:00:00 -6.3 0 Calma 4 Oeste 0 -- -- 78
2021-01-09 08:00:00 -6.5 0 Calma 5 Sur 0 -- -- 78
2021-01-09 07:00:00 -6.4 0 Calma 8 Nordeste 0 -- -- 75
2021-01-09 06:00:00 -5.9 2 Este 10 Norte 0 -- -- 69
2021-01-09 05:00:00 -5.5 3 Norte 16 Nordeste 0 -- -- 68
2021-01-09 04:00:00 -4.7 10 Norte 23 Norte 0 -- -- 65
2021-01-09 03:00:00 -5 14 Norte 21 Norte 0 -- -- 71
2021-01-09 02:00:00 -6.5 0 Calma 9 Nordeste 0 -- -- 86
2021-01-09 01:00:00 -6.2 0 Calma 8 Norte 0 -- -- 84
2021-01-09 00:00:00 -6.2 0 Calma 3 Sur 0 -- -- 91
2021-01-08 23:00:00 -5.9 0 Calma 4 Nordeste 0 -- -- 91
2021-01-08 22:00:00 -5.5 0 Calma 4 Norte 0 -- -- 93
2021-01-08 21:00:00 -4.7 0 Calma 5 Sur 0 -- -- 89
2021-01-08 20:00:00 -3.8 0 Calma 4 Norte 0 -- -- 82
2021-01-08 19:00:00 -2.6 0 Calma 4 Nordeste 0 -- -- 81
2021-01-08 18:00:00 -1.1 3 Nordeste 14 Nordeste 0 -- -- 75
2021-01-08 17:00:00 -0.1 10 Nordeste 19 Nordeste 0 -- -- 59
2021-01-08 16:00:00 0.5 7 Nordeste 23 Nordeste 0 -- -- 57
2021-01-08 15:00:00 0.2 7 Norte 27 Norte 0 -- -- 59
2021-01-08 14:00:00 -0.7 11 Norte 22 Nordeste 0 -- -- 62
2021-01-08 13:00:00 -1.2 9 Norte 23 Norte 0 -- -- 73
2021-01-08 12:00:00 -2.7 5 Nordeste 9 Norte 0 -- -- 81
2021-01-08 11:00:00 -6.2 0 Calma 0 Calma 0 -- -- 99
2021-01-08 10:00:00 -8.7 0 Calma -- -- 0 -- -- 100
2021-01-08 09:00:00 -9.2 0 Calma 5 Oeste 0 -- -- 98
2021-01-08 08:00:00 -9 2 Sudoeste 4 Sudoeste 0 -- -- 98
2021-01-08 07:00:00 -8.8 0 Calma 6 Sudoeste 0 -- -- 98
2021-01-08 06:00:00 -8.7 3 Sur 4 Sudoeste 0 -- -- 98
2021-01-08 05:00:00 -8.5 0 Calma 6 Oeste 0 -- -- 98
2021-01-08 04:00:00 -8.1 2 Sudoeste 4 Oeste 0 -- -- 98
2021-01-08 03:00:00 -7.8 0 Calma 4 Sudoeste 0 -- -- 98
2021-01-08 02:00:00 -7.5 0 Calma 4 Sudoeste 0 -- -- 98
2021-01-08 01:00:00 -7.2 0 Calma 5 Sudoeste 0 -- -- 97
2021-01-08 00:00:00 -6.7 2 Sudoeste 4 Oeste 0 -- -- 96
2021-01-07 23:00:00 -6.1 0 Calma 5 Oeste 0 -- -- 95
2021-01-07 22:00:00 -5.4 0 Calma 8 Sudoeste 0 -- -- 93
2021-01-07 21:00:00 -5 2 Sudoeste 5 Sudoeste 0 -- -- 92
2021-01-07 20:00:00 -4.1 2 Sudoeste 5 Sudoeste 0 -- -- 86
2021-01-07 19:00:00 -2.7 3 Sur 5 Sudoeste 0 -- -- 80
2021-01-07 18:00:00 -1 2 Sur 15 Sur 0 -- -- 77
2021-01-07 17:00:00 0.4 4 Este 15 Nordeste 0 -- -- 69
2021-01-07 16:00:00 1.3 4 Norte 12 Norte 0 -- -- 71
2021-01-07 15:00:00 1.1 3 Norte 7 Norte 0 -- -- 76
2021-01-07 14:00:00 -0.4 0 Calma 6 Sudoeste 0 -- -- 81
2021-01-07 13:00:00 -0.9 0 Calma 5 Sur 0 -- -- 84
2021-01-07 12:00:00 -2.9 2 Sur 6 Sur 0 -- -- 86
2021-01-07 11:00:00 -6.1 2 Sudoeste 4 Sur 0 -- -- 98
2021-01-07 10:00:00 -7.9 2 Sur 3 Sur 0 -- -- 99
2021-01-07 09:00:00 -8.6 0 Calma 3 Sudoeste 0 -- -- 98
2021-01-07 08:00:00 -8.4 0 Calma 3 Sudoeste 0 -- -- 99
2021-01-07 07:00:00 -8.2 0 Calma 6 Sur 0 -- -- 98
2021-01-07 06:00:00 -8 0 Calma 4 Sudoeste 0 -- -- 98
2021-01-07 05:00:00 -7.8 2 Sur 5 Sudoeste 0 -- -- 98
2021-01-07 04:00:00 -7.6 2 Sur 4 Sudoeste 0 -- -- 98
2021-01-07 03:00:00 -7.2 0 Calma 6 Sudoeste 0 -- -- 98
2021-01-07 02:00:00 -6.8 3 Sudoeste 5 Sudoeste 0 -- -- 97
2021-01-07 01:00:00 -6.3 2 Sudoeste 5 Sudoeste 0 -- -- 97
2021-01-07 00:00:00 -5.9 2 Sudoeste 5 Sudoeste 0 -- -- 97
2021-01-06 23:00:00 -5.2 0 Calma 5 Sudoeste 0 -- -- 97
2021-01-06 22:00:00 -4.7 2 Oeste 7 Sudoeste 0 -- -- 96
2021-01-06 21:00:00 -4.1 2 Sudoeste 3 Sur 0 -- -- 93
2021-01-06 20:00:00 -3.2 2 Sudoeste 4 Sudoeste 0 -- -- 91
2021-01-06 19:00:00 -2 0 Calma 5 Nordeste 0 -- -- 87
2021-01-06 18:00:00 -0.4 2 Este 5 Nordeste 0.2 -- -- 82
2021-01-06 17:00:00 0.8 4 Nordeste 10 Norte 0 -- -- 78
2021-01-06 16:00:00 1.8 4 Nordeste 12 Nordeste 0.2 -- -- 78
2021-01-06 15:00:00 2.6 0 Calma 8 Sur 0 -- -- 69
2021-01-06 14:00:00 0.9 2 Sur 6 Sur 0 -- -- 81
2021-01-06 13:00:00 -0.2 0 Calma 3 Sur 0 -- -- 80
2021-01-06 12:00:00 -2.1 0 Calma 3 Oeste 0 -- -- 90
2021-01-06 11:00:00 -4.7 0 Calma -- -- 0 -- -- 99
2021-01-06 10:00:00 -6.4 0 Calma -- -- 0 -- -- 100
2021-01-06 09:00:00 -7.2 0 Calma -- -- 0 -- -- 99
2021-01-06 08:00:00 -7.2 0 Calma -- -- 0 -- -- 99
2021-01-06 07:00:00 -7 0 Calma -- -- 0 -- -- 100
2021-01-06 06:00:00 -6.9 0 Calma -- -- 0 -- -- 100
2021-01-06 05:00:00 -6.7 0 Calma -- -- 0 -- -- 99
2021-01-06 04:00:00 -6.3 0 Calma -- -- 0 -- -- 100
2021-01-06 03:00:00 -6.3 0 Calma -- -- 0 -- -- 99
2021-01-06 02:00:00 -5.8 0 Calma -- -- 0 -- -- 99
2021-01-06 01:00:00 -5.3 0 Calma -- -- 0 -- -- 99
2021-01-06 00:00:00 -4.8 0 Calma -- -- 0 -- -- 100
2021-01-05 23:00:00 -4.5 0 Calma -- -- 0 -- -- 97
2021-01-05 22:00:00 -4 0 Calma 4 Sur 0 -- -- 97
2021-01-05 21:00:00 -3.2 2 Sur 7 Sudoeste 0 -- -- 96
2021-01-05 20:00:00 -2.4 0 Calma 2 Sur 0 -- -- 95
2021-01-05 19:00:00 -1.6 0 Calma 4 Nordeste 0 -- -- 97
2021-01-05 18:00:00 -0.8 0 Calma 4 Norte 0.2 -- -- 94
2021-01-05 17:00:00 -0.1 3 Norte 10 Nordeste 0.2 -- -- 92
2021-01-05 16:00:00 1.1 2 Nordeste 9 Nordeste 0.2 -- -- 87
2021-01-05 15:00:00 1.1 4 Nordeste 9 Norte 0.2 -- -- 84
2021-01-05 14:00:00 0.8 2 Norte 6 Norte 0.4 -- -- 86
2021-01-05 13:00:00 -0.3 0 Calma 4 Sudoeste 0 -- -- 91
2021-01-05 12:00:00 -1.7 0 Calma 5 Sur 0 -- -- 91
2021-01-05 11:00:00 -4.8 0 Calma -- -- 0 -- -- 100
2021-01-05 10:00:00 -6.9 0 Calma -- -- 0 -- -- 100
2021-01-05 09:00:00 -7.5 0 Calma -- -- 0 -- -- 99
2021-01-05 08:00:00 -7.2 0 Calma -- -- 0 -- -- 99
2021-01-05 07:00:00 -7.2 0 Calma -- -- 0 -- -- 99
2021-01-05 06:00:00 -6.8 0 Calma -- -- 0 -- -- 99
2021-01-05 05:00:00 -6.5 0 Calma -- -- 0 -- -- 98
2021-01-05 04:00:00 -6.3 0 Calma -- -- 0 -- -- 98
2021-01-05 03:00:00 -5.9 0 Calma -- -- 0 -- -- 98
2021-01-05 02:00:00 -5.6 0 Calma -- -- 0 -- -- 95
2021-01-05 01:00:00 -5 0 Calma -- -- 0 -- -- 94
2021-01-05 00:00:00 -4.3 0 Calma -- -- 0 -- -- 94
2021-01-04 23:00:00 -2.9 0 Calma -- -- 0 -- -- 98
2021-01-04 22:00:00 -2.6 0 Calma -- -- 0 -- -- 99
2021-01-04 21:00:00 -2.9 0 Calma -- -- 0 -- -- 99
2021-01-04 20:00:00 -2.2 0 Calma -- -- 0 -- -- 96
2021-01-04 19:00:00 -1.2 0 Calma -- -- 0 -- -- 96
2021-01-04 18:00:00 -0.9 0 Calma 6 Norte 0 -- -- 96
2021-01-04 17:00:00 -0.4 0 Calma 9 Nordeste 0.2 -- -- 96
2021-01-04 16:00:00 -0.3 0 Calma 10 Norte 0.2 -- -- 91
2021-01-04 15:00:00 -0.5 2 Norte 16 Norte 0.2 -- -- 92
2021-01-04 14:00:00 -0.2 6 Norte 17 Norte 0.4 -- -- 92
2021-01-04 13:00:00 0.1 2 Noroeste 7 Oeste 0.4 -- -- 93
2021-01-04 12:00:00 -0.3 0 Calma 6 Noroeste 0 -- -- 95
2021-01-04 11:00:00 -0.6 0 Calma 5 Norte 0 -- -- 100
2021-01-04 10:00:00 -1.3 0 Calma 6 Oeste 0 -- -- 100
2021-01-04 09:00:00 -1.4 2 Noroeste 6 Sudoeste 0 -- -- 99
2021-01-04 08:00:00 -1.4 0 Calma 7 Norte 0 -- -- 99
2021-01-04 07:00:00 -1.3 0 Calma 12 Noroeste 0 -- -- 100
2021-01-04 06:00:00 -1.2 5 Noroeste 12 Noroeste 0 -- -- 100
2021-01-04 05:00:00 -1.2 0 Calma 6 Noroeste 0 -- -- 100
2021-01-04 04:00:00 -1.1 2 Oeste 5 Oeste 0 -- -- 100
2021-01-04 03:00:00 -1.2 2 Noroeste 8 Noroeste 0 -- -- 99
2021-01-04 02:00:00 -1.1 3 Norte 7 Noroeste 0 -- -- 100
2021-01-04 01:00:00 -0.9 2 Noroeste 6 Oeste 0 -- -- 100
2021-01-04 00:00:00 -0.8 2 Noroeste 9 Norte 0 -- -- 99
2021-01-03 23:00:00 -0.8 0 Calma 12 Nordeste 0 -- -- 100
2021-01-03 22:00:00 -0.6 6 Norte 15 Noroeste 0 -- -- 100
2021-01-03 21:00:00 -0.3 4 Norte 18 Noroeste 0.2 -- -- 100
2021-01-03 20:00:00 0 8 Noroeste 18 Noroeste 0 -- -- 100
2021-01-03 19:00:00 0.2 2 Noroeste 19 Noroeste 0 -- -- 100
2021-01-03 18:00:00 0.3 9 Noroeste 28 Noroeste 0.2 -- -- 100
2021-01-03 17:00:00 0.5 4 Oeste 17 Oeste 0.6 -- -- 99
2021-01-03 16:00:00 0.9 4 Oeste 18 Oeste 0.2 -- -- 96
2021-01-03 15:00:00 0.9 4 Sudoeste 13 Oeste 0 -- -- 95
2021-01-03 14:00:00 0.4 0 Calma 0 Calma 0.2 -- -- 97
2021-01-03 13:00:00 0.3 0 Calma -- -- 0.2 -- -- 100
2021-01-03 12:00:00 0.1 0 Calma -- -- 0 -- -- 100
2021-01-03 11:00:00 -0.1 0 Calma -- -- 0 -- -- 100
2021-01-03 10:00:00 -0.4 0 Calma -- -- 0 -- -- 100
2021-01-03 09:00:00 -0.5 0 Calma -- -- 0 -- -- 100
2021-01-03 08:00:00 -0.5 0 Calma -- -- 0 -- -- 100
2021-01-03 07:00:00 -0.7 0 Calma -- -- 0 -- -- 100
2021-01-03 06:00:00 -0.7 0 Calma -- -- 0 -- -- 100
2021-01-03 05:00:00 -0.8 0 Calma -- -- 0 -- -- 100
2021-01-03 04:00:00 -0.7 0 Calma -- -- 0 -- -- 100
2021-01-03 03:00:00 -0.8 0 Calma -- -- 0 -- -- 100
2021-01-03 02:00:00 -0.7 0 Calma -- -- 0 -- -- 100
2021-01-03 01:00:00 -0.7 0 Calma -- -- 0 -- -- 100
2021-01-03 00:00:00 -0.7 0 Calma -- -- 0 -- -- 100
2021-01-02 23:00:00 -0.6 0 Calma -- -- 0 -- -- 100
2021-01-02 22:00:00 -0.6 0 Calma -- -- 0 -- -- 99
2021-01-02 21:00:00 -0.5 0 Calma -- -- 0 -- -- 98
2021-01-02 20:00:00 -0.5 0 Calma -- -- 0 -- -- 99
2021-01-02 19:00:00 -0.4 0 Calma -- -- 0 -- -- 98
2021-01-02 18:00:00 0 0 Calma -- -- 0.2 -- -- 97
2021-01-02 17:00:00 0.2 0 Calma -- -- 0.2 -- -- 96
2021-01-02 16:00:00 0.2 0 Calma -- -- 0.6 -- -- 95
2021-01-02 15:00:00 0.5 0 Calma -- -- 0.6 -- -- 92
2021-01-02 14:00:00 0.4 0 Calma -- -- 0.4 -- -- 92